createdAt,value
2022-10-05T00:01:05.515Z,1.83
2022-10-05T00:03:37.050Z,2.43
2022-10-05T00:06:04.931Z,2.43
2022-10-05T00:08:34.018Z,2.33
2022-10-05T00:11:00.961Z,2.00
2022-10-05T00:13:30.719Z,1.50
2022-10-05T00:16:12.234Z,1.67
2022-10-05T00:18:39.480Z,2.20
2022-10-05T00:21:26.989Z,1.87
2022-10-05T00:23:57.581Z,1.60
2022-10-05T00:26:26.767Z,2.40
2022-10-05T00:28:54.954Z,2.30
2022-10-05T00:31:30.714Z,2.23
2022-10-05T00:33:58.039Z,3.30
2022-10-05T00:36:26.226Z,1.43
2022-10-05T00:38:54.074Z,1.80
2022-10-05T00:42:07.278Z,1.40
2022-10-05T00:45:03.220Z,1.73
2022-10-05T00:47:51.203Z,1.43
2022-10-05T00:50:36.973Z,1.80
2022-10-05T00:53:24.572Z,2.10
2022-10-05T00:55:54.056Z,1.87
2022-10-05T00:58:48.865Z,2.53
2022-10-05T01:01:20.175Z,2.50
2022-10-05T01:03:46.859Z,1.63
2022-10-05T01:06:39.458Z,1.53
2022-10-05T01:09:23.670Z,1.80
2022-10-05T01:12:05.082Z,1.93
2022-10-05T01:14:50.781Z,2.50
2022-10-05T01:17:26.319Z,1.87
2022-10-05T01:20:10.963Z,1.90
2022-10-05T01:22:49.323Z,1.80
2022-10-05T01:25:30.652Z,1.50
2022-10-05T01:28:32.766Z,1.67
2022-10-05T01:31:05.574Z,1.67
2022-10-05T01:33:46.587Z,1.47
2022-10-05T01:36:32.117Z,1.47
2022-10-05T01:39:25.633Z,2.03
2022-10-05T01:42:07.238Z,1.67
2022-10-05T01:44:55.517Z,1.67
2022-10-05T01:47:29.901Z,2.43
2022-10-05T01:50:25.859Z,2.90
2022-10-05T01:53:27.823Z,1.90
2022-10-05T01:56:24.656Z,3.77
2022-10-05T01:59:29.687Z,1.50
2022-10-05T02:02:03.272Z,1.40
2022-10-05T02:05:01.075Z,1.60
2022-10-05T02:07:32.615Z,1.37
2022-10-05T02:10:04.702Z,2.13
2022-10-05T02:12:36.543Z,1.60
2022-10-05T02:15:12.532Z,1.47
2022-10-05T02:17:45.483Z,2.00
2022-10-05T02:20:18.682Z,1.87
2022-10-05T02:22:49.241Z,1.60
2022-10-05T02:25:23.018Z,2.60
2022-10-05T02:28:08.250Z,1.93
2022-10-05T02:30:41.354Z,1.87
2022-10-05T02:33:37.532Z,6.57
2022-10-05T02:36:26.597Z,1.67
2022-10-05T02:39:24.177Z,2.13
2022-10-05T02:41:59.738Z,1.40
2022-10-05T02:44:47.765Z,3.70
2022-10-05T02:47:37.473Z,3.87
2022-10-05T02:50:30.322Z,1.60
2022-10-05T02:53:02.733Z,3.20
2022-10-05T02:55:53.548Z,1.70
2022-10-05T02:58:24.858Z,1.27
2022-10-05T03:01:07.958Z,2.50
2022-10-05T03:04:19.373Z,1.10
2022-10-05T03:06:59.270Z,2.03
2022-10-05T03:09:31.398Z,1.53
2022-10-05T03:12:11.521Z,3.20
2022-10-05T03:14:47.981Z,1.47
2022-10-05T03:17:20.691Z,1.57
2022-10-05T03:20:19.281Z,1.67
2022-10-05T03:22:51.014Z,1.20
2022-10-05T03:25:41.752Z,1.10
2022-10-05T03:28:23.197Z,1.50
2022-10-05T03:30:56.271Z,1.53
2022-10-05T03:33:47.975Z,1.30
2022-10-05T03:36:38.654Z,2.90
2022-10-05T03:39:19.792Z,1.30
2022-10-05T03:41:49.326Z,1.40
2022-10-05T03:44:27.954Z,1.43
2022-10-05T03:47:32.929Z,1.70
2022-10-05T03:50:11.995Z,1.40
2022-10-05T03:52:50.219Z,1.77
2022-10-05T03:55:31.110Z,1.47
2022-10-05T03:58:14.282Z,1.47
2022-10-05T04:00:46.117Z,2.57
2022-10-05T04:03:17.858Z,1.57
2022-10-05T04:05:55.537Z,1.53
2022-10-05T04:08:54.270Z,1.97
2022-10-05T04:11:26.655Z,2.10
2022-10-05T04:14:02.624Z,1.57
2022-10-05T04:16:37.822Z,1.33
2022-10-05T04:19:23.770Z,2.00
2022-10-05T04:22:11.790Z,1.87
2022-10-05T04:25:06.313Z,1.70
2022-10-05T04:28:10.254Z,1.40
2022-10-05T04:30:41.027Z,1.57
2022-10-05T04:33:12.565Z,1.53
2022-10-05T04:35:51.349Z,1.50
2022-10-05T04:38:43.605Z,1.73
2022-10-05T04:41:42.410Z,2.17
2022-10-05T04:44:27.262Z,1.60
2022-10-05T04:47:01.729Z,1.63
2022-10-05T04:49:43.532Z,2.33
2022-10-05T04:52:32.650Z,1.87
2022-10-05T04:55:47.860Z,1.97
2022-10-05T04:58:41.397Z,1.53
2022-10-05T05:01:32.188Z,1.70
2022-10-05T05:04:11.596Z,2.23
2022-10-05T05:07:07.572Z,5.03
2022-10-05T05:09:55.528Z,2.20
2022-10-05T05:12:53.261Z,1.50
2022-10-05T05:15:34.594Z,1.63
2022-10-05T05:18:19.646Z,1.53
2022-10-05T05:21:04.107Z,2.07
2022-10-05T05:23:44.406Z,1.90
2022-10-05T05:26:22.967Z,1.70
2022-10-05T05:29:18.033Z,2.20
2022-10-05T05:32:07.918Z,1.83
2022-10-05T05:35:05.697Z,4.50
2022-10-05T05:37:35.917Z,2.20
2022-10-05T05:40:21.500Z,2.63
2022-10-05T05:43:12.790Z,1.30
2022-10-05T05:45:42.504Z,1.50
2022-10-05T05:48:37.912Z,1.70
2022-10-05T05:51:10.938Z,6.30
2022-10-05T05:53:42.534Z,9.97
2022-10-05T05:56:19.873Z,17.37
2022-10-05T05:58:54.901Z,15.13
2022-10-05T06:01:34.240Z,15.50
2022-10-05T06:04:14.766Z,24.67
2022-10-05T06:06:47.790Z,22.80
2022-10-05T06:09:41.794Z,31.03
2022-10-05T06:12:24.159Z,23.07
2022-10-05T06:15:03.835Z,23.23
2022-10-05T06:17:47.484Z,29.90
2022-10-05T06:20:26.921Z,24.57
2022-10-05T06:22:57.893Z,36.03
2022-10-05T06:25:37.859Z,25.30
2022-10-05T06:28:12.530Z,32.30
2022-10-05T06:34:39.399Z,24.73
2022-10-05T06:37:19.516Z,27.00
2022-10-05T06:40:11.134Z,26.10
2022-10-05T06:42:56.767Z,23.53
2022-10-05T06:45:23.481Z,25.17
2022-10-05T06:48:06.183Z,21.87
2022-10-05T06:50:44.618Z,22.73
2022-10-05T06:53:33.834Z,25.97
2022-10-05T06:56:06.382Z,21.77
2022-10-05T06:59:08.981Z,22.60
2022-10-05T07:02:11.520Z,20.67
2022-10-05T07:04:44.379Z,20.50
2022-10-05T07:07:22.724Z,21.77
2022-10-05T07:10:24.576Z,17.77
2022-10-05T07:13:09.411Z,19.50
2022-10-05T07:15:44.647Z,21.27
2022-10-05T07:18:40.773Z,18.33
2022-10-05T07:21:20.374Z,22.33
2022-10-05T07:23:58.635Z,19.50
2022-10-05T07:26:57.252Z,21.40
2022-10-05T07:29:35.289Z,19.93
2022-10-05T07:32:40.895Z,18.20
2022-10-05T07:36:03.807Z,17.00
2022-10-05T07:38:59.447Z,15.43
2022-10-05T07:41:50.682Z,21.67
2022-10-05T07:44:27.003Z,13.40
2022-10-05T07:46:58.103Z,14.73
2022-10-05T07:49:43.457Z,16.80
2022-10-05T07:52:32.371Z,17.53
2022-10-05T07:55:17.681Z,15.60
2022-10-05T07:58:15.147Z,13.70
2022-10-05T08:01:02.487Z,12.70
2022-10-05T08:03:49.757Z,16.60
2022-10-05T08:06:38.217Z,12.00
2022-10-05T08:09:24.357Z,10.40
2022-10-05T08:12:10.633Z,13.37
2022-10-05T08:14:51.286Z,11.90
2022-10-05T08:17:51.844Z,13.53
2022-10-05T08:20:37.770Z,14.33
2022-10-05T08:23:14.400Z,14.70
2022-10-05T08:25:55.269Z,11.70
2022-10-05T08:28:30.014Z,12.20
2022-10-05T08:31:23.450Z,9.90
2022-10-05T08:34:00.873Z,11.30
2022-10-05T08:37:04.876Z,11.00
2022-10-05T08:39:48.837Z,10.83
2022-10-05T08:42:52.685Z,11.13
2022-10-05T08:45:34.044Z,14.17
2022-10-05T08:48:23.212Z,9.00
2022-10-05T08:51:11.361Z,13.50
2022-10-05T08:54:48.353Z,10.73
2022-10-05T08:57:33.593Z,8.30
2022-10-05T09:00:18.054Z,11.57
2022-10-05T09:03:17.060Z,9.13
2022-10-05T09:06:00.305Z,9.97
2022-10-05T09:09:06.314Z,7.97
2022-10-05T09:11:50.746Z,10.90
2022-10-05T09:14:36.243Z,6.20
2022-10-05T09:17:19.725Z,9.37
2022-10-05T09:20:30.260Z,7.33
2022-10-05T09:23:13.598Z,9.40
2022-10-05T09:25:58.841Z,7.60
2022-10-05T09:28:49.576Z,8.37
2022-10-05T09:31:40.265Z,9.00
2022-10-05T09:34:26.016Z,7.30
2022-10-05T09:37:08.090Z,9.73
2022-10-05T09:39:59.146Z,5.37
2022-10-05T09:42:34.161Z,7.67
2022-10-05T09:45:31.264Z,7.17
2022-10-05T09:48:18.744Z,4.97
2022-10-05T09:50:53.866Z,5.57
2022-10-05T09:53:40.762Z,7.17
2022-10-05T09:56:34.481Z,8.67
2022-10-05T09:59:22.376Z,6.23
2022-10-05T10:02:18.234Z,6.70
2022-10-05T10:05:06.812Z,6.93
2022-10-05T10:08:01.123Z,8.10
2022-10-05T10:10:55.477Z,5.70
2022-10-05T10:13:40.910Z,4.30
2022-10-05T10:16:26.744Z,9.90
2022-10-05T10:19:24.055Z,7.33
2022-10-05T10:22:27.466Z,4.90
2022-10-05T10:25:12.956Z,4.40
2022-10-05T10:28:01.283Z,4.77
2022-10-05T10:30:39.736Z,5.63
2022-10-05T10:33:18.274Z,3.70
2022-10-05T10:35:55.840Z,4.77
2022-10-05T10:38:30.993Z,4.77
2022-10-05T10:41:36.012Z,5.70
2022-10-05T10:44:43.102Z,5.30
2022-10-05T10:47:35.348Z,6.20
2022-10-05T10:50:22.927Z,4.20
2022-10-05T10:52:55.633Z,5.20
2022-10-05T10:55:38.028Z,4.33
2022-10-05T11:01:12.406Z,4.40
2022-10-05T11:03:59.665Z,5.20
2022-10-05T11:06:29.109Z,4.00
2022-10-05T11:09:11.449Z,3.27
2022-10-05T11:12:12.017Z,3.00
2022-10-05T11:15:02.385Z,3.23
2022-10-05T11:17:47.220Z,2.50
2022-10-05T11:20:32.233Z,3.80
2022-10-05T11:23:04.807Z,4.20
2022-10-05T11:26:09.542Z,4.30
2022-10-05T11:29:10.280Z,3.40
2022-10-05T11:32:01.236Z,3.83
2022-10-05T11:34:58.948Z,5.00
2022-10-05T11:37:41.773Z,4.17
2022-10-05T11:40:11.249Z,3.60
2022-10-05T11:43:02.177Z,3.43
2022-10-05T11:46:10.556Z,4.60
2022-10-05T11:48:42.943Z,4.80
2022-10-05T11:51:31.585Z,3.50
2022-10-05T11:54:06.717Z,4.53
2022-10-05T11:56:41.983Z,3.30
2022-10-05T11:59:18.941Z,3.53
2022-10-05T12:01:48.249Z,3.67
2022-10-05T12:04:45.378Z,3.40
2022-10-05T12:07:22.408Z,2.87
2022-10-05T12:10:22.709Z,4.13
2022-10-05T12:13:30.085Z,4.00
2022-10-05T12:16:14.553Z,3.17
2022-10-05T12:19:00.003Z,3.37
2022-10-05T12:22:34.050Z,3.30
2022-10-05T12:25:19.153Z,3.50
2022-10-05T12:27:52.010Z,3.10
2022-10-05T12:30:52.069Z,3.60
2022-10-05T12:33:30.934Z,2.93
2022-10-05T12:36:22.450Z,3.90
2022-10-05T12:39:05.709Z,3.90
2022-10-05T12:41:49.705Z,3.50
2022-10-05T12:44:31.666Z,2.90
2022-10-05T12:47:07.148Z,3.50
2022-10-05T12:49:52.266Z,3.20
2022-10-05T12:52:43.540Z,2.80
2022-10-05T12:55:17.123Z,2.93
2022-10-05T12:57:53.022Z,3.60
2022-10-05T13:00:23.191Z,3.83
2022-10-05T13:03:00.125Z,3.30
2022-10-05T13:05:34.919Z,2.50
2022-10-05T13:08:17.753Z,2.77
2022-10-05T13:10:54.213Z,3.90
2022-10-05T13:13:59.894Z,3.10
2022-10-05T13:16:40.679Z,2.87
2022-10-05T13:19:19.542Z,2.10
2022-10-05T13:21:46.621Z,2.50
2022-10-05T13:24:31.421Z,2.33
2022-10-05T13:27:14.005Z,2.40
2022-10-05T13:29:54.337Z,2.80
2022-10-05T13:32:25.566Z,2.53
2022-10-05T13:35:13.508Z,2.43
2022-10-05T13:37:52.055Z,2.73
2022-10-05T13:40:28.527Z,2.93
2022-10-05T13:43:06.667Z,2.37
2022-10-05T13:45:51.207Z,2.60
2022-10-05T13:48:38.509Z,2.77
2022-10-05T13:51:18.188Z,2.80
2022-10-05T13:53:49.230Z,2.67
2022-10-05T13:56:37.438Z,3.10
2022-10-05T13:59:13.711Z,2.60
2022-10-05T14:02:02.142Z,2.70
2022-10-05T14:04:43.144Z,2.33
2022-10-05T14:07:38.923Z,2.43
2022-10-05T14:10:13.614Z,3.10
2022-10-05T14:12:43.384Z,3.07
2022-10-05T14:15:22.186Z,2.70
2022-10-05T14:17:51.226Z,2.57
2022-10-05T14:20:18.060Z,2.67
2022-10-05T14:22:49.280Z,2.30
2022-10-05T14:25:18.091Z,2.07
2022-10-05T14:28:04.387Z,2.33
2022-10-05T14:30:32.740Z,2.27
2022-10-05T14:33:05.390Z,3.10
2022-10-05T14:35:53.706Z,2.23
2022-10-05T14:38:51.131Z,2.20
2022-10-05T14:41:20.829Z,3.43
2022-10-05T14:44:09.581Z,2.00
2022-10-05T14:46:37.343Z,2.07
2022-10-05T14:49:17.001Z,2.93
2022-10-05T14:51:43.886Z,2.40
2022-10-05T14:54:30.554Z,2.13
2022-10-05T14:57:12.302Z,3.03
2022-10-05T15:00:00.516Z,2.20
2022-10-05T15:02:45.014Z,2.50
2022-10-05T15:05:33.639Z,2.43
2022-10-05T15:08:31.253Z,2.33
2022-10-05T15:11:04.791Z,2.33
2022-10-05T15:13:38.439Z,2.57
2022-10-05T15:16:19.931Z,2.37
2022-10-05T15:19:44.821Z,2.57
2022-10-05T15:22:31.740Z,2.40
2022-10-05T15:25:21.526Z,2.37
2022-10-05T15:28:24.076Z,2.43
2022-10-05T15:31:02.582Z,2.60
2022-10-05T15:33:46.325Z,2.70
2022-10-05T15:37:16.130Z,2.17
2022-10-05T15:40:04.676Z,2.60
2022-10-05T15:42:38.384Z,2.57
2022-10-05T15:45:29.993Z,2.27
2022-10-05T15:48:01.608Z,3.20
2022-10-05T15:50:33.676Z,2.50
2022-10-05T15:53:25.694Z,2.17
2022-10-05T15:56:16.804Z,2.80
2022-10-05T15:58:58.056Z,2.50
2022-10-05T16:01:48.945Z,5.07
2022-10-05T16:04:39.306Z,2.20
2022-10-05T16:07:35.447Z,2.90
2022-10-05T16:10:19.985Z,3.07
2022-10-05T16:13:06.921Z,2.87
2022-10-05T16:15:33.644Z,2.13
2022-10-05T16:18:22.116Z,3.17
2022-10-05T16:20:55.298Z,2.90
2022-10-05T16:23:55.201Z,3.10
2022-10-05T16:26:38.603Z,2.37
2022-10-05T16:29:14.904Z,2.73
2022-10-05T16:32:05.784Z,2.73
2022-10-05T16:35:16.538Z,2.10
2022-10-05T16:38:07.766Z,2.87
2022-10-05T16:41:09.687Z,3.70
2022-10-05T16:43:44.962Z,2.50
2022-10-05T16:46:12.360Z,3.17
2022-10-05T16:49:11.532Z,3.00
2022-10-05T16:51:48.524Z,3.00
2022-10-05T16:54:20.170Z,2.73
2022-10-05T16:57:04.253Z,3.33
2022-10-05T16:59:36.408Z,3.67
2022-10-05T17:02:30.687Z,4.27
2022-10-05T17:05:12.290Z,4.10
2022-10-05T17:08:01.544Z,3.37
2022-10-05T17:10:46.904Z,2.60
2022-10-05T17:13:43.562Z,3.40
2022-10-05T17:16:39.170Z,3.50
2022-10-05T17:19:26.226Z,3.20
2022-10-05T17:22:12.774Z,3.07
2022-10-05T17:24:59.107Z,2.93
2022-10-05T17:27:51.156Z,2.80
2022-10-05T17:30:39.001Z,2.97
2022-10-05T17:33:26.031Z,2.60
2022-10-05T17:36:12.254Z,3.20
2022-10-05T17:39:07.594Z,3.50
2022-10-05T17:41:37.057Z,3.13
2022-10-05T17:44:16.192Z,4.87
2022-10-05T17:46:48.489Z,2.80
2022-10-05T17:49:41.427Z,3.03
2022-10-05T17:52:40.345Z,3.43
2022-10-05T17:55:25.828Z,2.30
2022-10-05T17:57:53.315Z,3.03
2022-10-05T18:00:25.814Z,3.43
2022-10-05T18:02:56.479Z,3.50
2022-10-05T18:05:28.740Z,2.93
2022-10-05T18:08:14.090Z,2.97
2022-10-05T18:11:19.824Z,3.80
2022-10-05T18:13:50.046Z,2.63
2022-10-05T18:16:53.871Z,2.83
2022-10-05T18:19:22.480Z,2.63
2022-10-05T18:22:27.664Z,3.40
2022-10-05T18:25:05.888Z,3.93
2022-10-05T18:27:58.345Z,2.27
2022-10-05T18:30:26.931Z,3.03
2022-10-05T18:32:59.922Z,2.90
2022-10-05T18:35:46.927Z,3.23
2022-10-05T18:38:39.610Z,3.10
2022-10-05T18:41:09.234Z,2.50
2022-10-05T18:43:44.426Z,2.63
2022-10-05T18:46:24.813Z,3.00
2022-10-05T18:49:10.662Z,3.07
2022-10-05T18:51:50.927Z,2.20
2022-10-05T18:54:25.007Z,3.80
2022-10-05T18:56:52.941Z,2.90
2022-10-05T18:59:52.631Z,3.57
2022-10-05T19:02:29.930Z,3.03
2022-10-05T19:05:05.357Z,2.83
2022-10-05T19:07:50.738Z,3.40
2022-10-05T19:10:30.282Z,3.27
2022-10-05T19:13:25.845Z,3.33
2022-10-05T19:16:22.472Z,2.80
2022-10-05T19:19:13.982Z,3.20
2022-10-05T19:21:59.368Z,3.20
2022-10-05T19:24:44.908Z,2.87
2022-10-05T19:27:17.389Z,4.70
2022-10-05T19:30:03.475Z,4.90
2022-10-05T19:33:04.865Z,6.40
2022-10-05T19:35:40.480Z,8.43
2022-10-05T19:38:36.436Z,12.30
2022-10-05T19:41:17.633Z,8.07
2022-10-05T19:44:06.670Z,9.30
2022-10-05T19:47:00.518Z,9.70
2022-10-05T19:49:43.008Z,8.20
2022-10-05T19:52:13.792Z,6.43
2022-10-05T19:54:41.867Z,9.13
2022-10-05T19:57:17.859Z,12.10
2022-10-05T19:59:48.380Z,17.70
2022-10-05T20:02:17.061Z,15.50
2022-10-05T20:04:49.329Z,9.83
2022-10-05T20:07:21.468Z,8.30
2022-10-05T20:09:51.284Z,11.07
2022-10-05T20:12:18.145Z,6.17
2022-10-05T20:15:03.427Z,8.53
2022-10-05T20:17:49.351Z,5.83
2022-10-05T20:20:48.472Z,6.40
2022-10-05T20:23:28.074Z,6.60
2022-10-05T20:26:13.235Z,6.50
2022-10-05T20:28:40.059Z,7.17
2022-10-05T20:31:08.020Z,7.10
2022-10-05T20:33:34.907Z,6.23
2022-10-05T20:36:03.862Z,5.70
2022-10-05T20:38:31.522Z,5.37
2022-10-05T20:40:58.533Z,5.67
2022-10-05T20:43:25.254Z,5.83
2022-10-05T20:45:52.271Z,5.03
2022-10-05T20:48:19.505Z,5.07
2022-10-05T20:50:47.302Z,5.00
2022-10-05T20:53:14.086Z,6.40
2022-10-05T20:55:40.791Z,4.70
2022-10-05T20:58:08.991Z,4.83
2022-10-05T21:00:54.241Z,4.50
2022-10-05T21:03:20.996Z,5.60
2022-10-05T21:05:47.911Z,5.37
2022-10-05T21:08:15.168Z,4.80
2022-10-05T21:10:41.899Z,5.60
2022-10-05T21:13:09.085Z,4.50
2022-10-05T21:15:35.880Z,4.50
2022-10-05T21:18:02.548Z,5.60
2022-10-05T21:20:29.305Z,5.03
2022-10-05T21:22:55.979Z,5.03
2022-10-05T21:25:22.660Z,4.87
2022-10-05T21:27:50.162Z,3.70
2022-10-05T21:30:16.950Z,4.03
2022-10-05T21:32:44.794Z,4.53
2022-10-05T21:35:11.864Z,4.60
2022-10-05T21:37:38.578Z,4.60
2022-10-05T21:40:05.982Z,4.10
2022-10-05T21:42:32.810Z,4.17
2022-10-05T21:44:59.482Z,3.60
2022-10-05T21:47:26.524Z,3.60
2022-10-05T21:49:53.716Z,3.60
2022-10-05T21:52:21.073Z,3.57
2022-10-05T21:54:47.866Z,3.57
2022-10-05T21:57:15.347Z,3.93
2022-10-05T21:59:42.908Z,4.33
2022-10-05T22:02:09.588Z,3.37
2022-10-05T22:04:36.384Z,3.77
2022-10-05T22:07:14.014Z,4.50
2022-10-05T22:09:40.664Z,23.03
2022-10-05T22:12:07.342Z,3.53
2022-10-05T22:14:34.000Z,4.10
2022-10-05T22:17:00.694Z,4.60
2022-10-05T22:19:27.478Z,3.90
2022-10-05T22:21:54.689Z,5.40
2022-10-05T22:24:21.409Z,4.97
2022-10-05T22:26:51.528Z,3.60
2022-10-05T22:29:19.946Z,5.63
2022-10-05T22:31:48.792Z,3.30
2022-10-05T22:34:16.787Z,3.70
2022-10-05T22:36:43.819Z,3.57
2022-10-05T22:39:10.480Z,4.47
2022-10-05T22:41:37.151Z,4.17
2022-10-05T22:44:04.296Z,4.93
2022-10-05T22:46:31.086Z,3.53
2022-10-05T22:48:57.885Z,3.30
2022-10-05T22:51:24.608Z,3.63
2022-10-05T22:53:51.269Z,4.40
2022-10-05T22:56:18.084Z,4.17
2022-10-05T22:58:45.801Z,3.63
2022-10-05T23:01:15.522Z,3.67
2022-10-05T23:03:42.444Z,3.70
2022-10-05T23:06:15.108Z,3.90
2022-10-05T23:08:42.369Z,3.90
2022-10-05T23:11:17.944Z,4.03
2022-10-05T23:13:45.199Z,4.77
2022-10-05T23:16:14.822Z,3.87
2022-10-05T23:18:42.456Z,3.83
2022-10-05T23:21:10.519Z,3.47
2022-10-05T23:23:42.468Z,3.30
2022-10-05T23:26:10.824Z,3.77
2022-10-05T23:28:49.112Z,3.37
2022-10-05T23:31:21.800Z,3.47
2022-10-05T23:33:48.828Z,3.90
2022-10-05T23:36:23.172Z,3.40
2022-10-05T23:38:50.595Z,3.60
2022-10-05T23:41:17.972Z,3.73
2022-10-05T23:43:44.656Z,3.57
2022-10-05T23:46:12.307Z,3.60
2022-10-05T23:48:39.624Z,3.40
2022-10-05T23:51:08.316Z,3.70
2022-10-05T23:53:35.281Z,3.50
2022-10-05T23:56:02.332Z,3.57
2022-10-05T23:58:29.467Z,4.30
